logo
App data

Forgotten, Not Lost - A Kinetic Novel

An old farmer lives with his wife - However, he hasn't quite been himself lately. His mind wanders off, he forgets his daily routine and he often brings up things from the past. Forgotten, Not Lost comes from the creators of A More Beautiful World and is a kinetic novel that tackles the theme of dementia and is a visual novel that hopes...
Store | Hub | SteamDB | Site
Developer: Afterthought Studios Publisher: Afterthought Studios
Genre: Casual, Indie, RPG, Simulation
Languages: English, Russian
Tags: Casual (263), Indie (48), Visual Novel (44), Simulation (40), RPG (40), Anime (35), Singleplayer (31), Story Rich (26)
Category: Single-player, Steam Achievements, Steam Trading Cards
Release date: Apr 2, 2016
Price: $1.99
Old userscore: 88% Owners: 20,000 .. 50,000
Followers: 1,086
Peak concurrent players yesterday: 1
Playtime total: 04:45 (average) 04:46 (median)

Steam Spy is still in beta, so expect major bugs.

Owners data:

Access restricted.

This feature is only available to users with special access rights. Sorry.

If you want to proceed, you need to register or log in first and then back Steam Spy on Patreon. Look for Indie or Pro pledge.

Don't forget to use the same email as on Steam Spy!

Audience in 2 weeks:

Access restricted.

This feature is only available to users with special access rights. Sorry.

If you want to proceed, you need to register or log in first and then back Steam Spy on Patreon. Look for Indie or Pro pledge.

Don't forget to use the same email as on Steam Spy!

Peak daily concurrent players:

CCU data courtesy of SteamDB. Used with permission.

Hourly concurrent players:

Followers over time

Access restricted.

This feature is only available to users with special access rights. Sorry.

If you want to proceed, you need to register or log in first and then back Steam Spy on Patreon. Look for Indie or Pro pledge.

Don't forget to use the same email as on Steam Spy!

Views for top 50 videos on YouTube for this game:

Games similar to this one:

# Game Release date
Price
Score rank
(Userscore / Metascore)
Owners
Players
Playtime (Median)
1 Hustle Cat Mar 16, 2016 $2.99N/A (N/A)50,000 .. 100,0000%00:00 (00:00)
2 Cyber Team Manager Jan 8, 2016 $4.99N/A (N/A)0 .. 20,0000%00:00 (00:00)
3 Burst Mar 14, 2016 N/AN/A (N/A)50,000 .. 100,0000%00:00 (00:00)
4 BAD END Nov 25, 2015 $1.79N/A (N/A)0 .. 20,0000%00:00 (00:00)
5 [the Sequence] Mar 30, 2016 $3.49N/A (N/A)0 .. 20,0000%00:00 (00:00)
6 Rescue Team 5 Sep 30, 2015 $1.99N/A (N/A)0 .. 20,0000%00:00 (00:00)
7 Sky to Fly: Soulless Leviathan Jul 22, 2016 $3.99N/A (N/A)20,000 .. 50,0000%00:00 (00:00)
8 Broken Dreams Feb 19, 2016 $0.49N/A (N/A)500,000 .. 1,000,0000%00:00 (00:00)
9 Melting Hearts: Our Love Will Grow 2 Apr 29, 2016 N/AN/A (N/A)20,000 .. 50,0000%00:00 (00:00)
10 Sophie's Curse Mar 16, 2016 $2.49N/A (N/A)50,000 .. 100,0000%00:00 (00:00)
11 Love in the Glen Jun 9, 2016 $2.99N/A (N/A)20,000 .. 50,0000%00:00 (00:00)
12 Night Blights Apr 15, 2016 $0.69N/A (N/A)0 .. 20,0000%00:00 (00:00)
13 One Last Chance Apr 7, 2016 $1.99N/A (N/A)20,000 .. 50,0000%00:00 (00:00)
14 RePete Nov 1, 2015 $1.99N/A (N/A)0 .. 20,0000%00:00 (00:00)
15 Reptilian Rebellion Aug 8, 2016 $2.99N/A (N/A)50,000 .. 100,0000%00:00 (00:00)
16 Caravanserail Feb 26, 2016 $0.74N/A (N/A)0 .. 20,0000%00:00 (00:00)
17 Hyposphere May 5, 2016 $0.5N/A (N/A)200,000 .. 500,0000%00:00 (00:00)
18 ConflictCraft Dec 8, 2016 $0.49N/A (N/A)100,000 .. 200,0000%00:00 (00:00)
19 King's Guard TD Jun 8, 2016 $0.59N/A (N/A)200,000 .. 500,0000%00:00 (00:00)
20 Optika Aug 26, 2016 $0.74N/A (N/A)0 .. 20,0000%00:00 (00:00)
21 Autumn Sep 23, 2014 $2.99N/A (N/A)100,000 .. 200,0000%00:00 (00:00)
22 Won't You Be My Laser? Sep 2, 2016 $0.49N/A (N/A)0 .. 20,0000%00:00 (00:00)
23 Magma Tsunami Jun 1, 2016 $0.99N/A (N/A)200,000 .. 500,0000%00:00 (00:00)
24 Where are my Internets? Dec 16, 2016 $0.74N/A (N/A)50,000 .. 100,0000%00:00 (00:00)
25 Frog Climbers Oct 6, 2016 $1.74N/A (N/A)20,000 .. 50,0000%00:00 (00:00)
26 Carrie's Order Up! Sep 13, 2016 $2.99N/A (N/A)0 .. 20,0000%00:00 (00:00)
27 Color Syndrome Jun 20, 2016 $0.99N/A (N/A)100,000 .. 200,0000%00:00 (00:00)
28 Turbo Pug 3D Sep 20, 2016 $0.99N/A (N/A)200,000 .. 500,0000%00:00 (00:00)
29 Totally Unbalanced Jul 29, 2016 FreeN/A (N/A)100,000 .. 200,0000%00:00 (00:00)
30 Archimedes Oct 6, 2016 $0.79N/A (N/A)20,000 .. 50,0000%00:00 (00:00)
31 Hide and Secret Treasure of the Ages Mar 15, 2007 $2.99N/A (N/A)20,000 .. 50,0000%00:00 (00:00)
32 Kombine Oct 14, 2016 $0.49N/A (N/A)0 .. 20,0000%00:00 (00:00)
33 12 Labours of Hercules V: Kids of Hellas (Platinum Edition) Jun 17, 2016 $1.79N/A (N/A)20,000 .. 50,0000%00:00 (00:00)
34 GO AWAY, THERE'S KUMIS OVER THERE! Oct 28, 2016 $0.49N/A (N/A)50,000 .. 100,0000%00:00 (00:00)
35 Laserlife Sep 22, 2015 $3.99N/A (N/A)20,000 .. 50,0000%00:00 (00:00)
36 Paranormal State: Poison Spring Nov 26, 2013 $1.49N/A (N/A)50,000 .. 100,0000%00:00 (00:00)
37 Governor of Poker 2 - Premium Edition Oct 11, 2010 $14.99N/A (N/A)20,000 .. 50,0000%00:00 (00:00)
38 Tribloos 2 Jan 12, 2013 $2.49N/A (N/A)100,000 .. 200,0000%00:00 (00:00)
39 Luxor Evolved Mar 1, 2012 $3.99N/A (N/A)50,000 .. 100,0000%00:00 (00:00)
40 On Rusty Trails Jun 13, 2016 $2.59N/A (N/A/77%)20,000 .. 50,0000%00:00 (00:00)
41 Highborn Feb 19, 2013 $1.99N/A (N/A)0 .. 20,0000%00:00 (00:00)
42 Rage Runner May 16, 2014 $0.99N/A (N/A)0 .. 20,0000%00:00 (00:00)
43 Oozi: Earth Adventure Dec 5, 2013 $0.49N/A (N/A/66%)20,000 .. 50,0000%00:00 (00:00)
44 Cyto Jul 10, 2014 $3.99N/A (N/A)20,000 .. 50,0000%00:00 (00:00)
45 Dead Man's Draw Feb 6, 2014 $3.49N/A (N/A)50,000 .. 100,00016.67%00:08 (00:02)
46 Cute Things Dying Violently Sep 2, 2015 $0.98N/A (N/A)0 .. 20,0000%00:00 (00:00)
47 Girls Like Robots Feb 14, 2014 $5.24N/A (N/A)100,000 .. 200,0000%00:00 (00:00)
48 GamersGoMakers Aug 8, 2014 $8.99N/A (N/A)20,000 .. 50,0000%00:00 (00:00)
49 Farm for your Life Jun 5, 2013 $9.99N/A (N/A)50,000 .. 100,0000%00:00 (00:00)
50 Bloop Reloaded Feb 6, 2015 FreeN/A (N/A)100,000 .. 200,0000%00:00 (00:00)
51 Grapple Mar 9, 2015 $0.69N/A (N/A)20,000 .. 50,0000%00:00 (00:00)
52 Neon Prism Nov 18, 2016 $1.09N/A (N/A)50,000 .. 100,0000%00:00 (00:00)
53 iREC Jan 16, 2017 FreeN/A (N/A)50,000 .. 100,0000%00:00 (00:00)
54 Space Hotel Jan 4, 2017 $0.49N/A (N/A)0 .. 20,0000%00:00 (00:00)
55 Griptape Backbone May 5, 2017 FreeN/A (N/A)0 .. 20,0000%00:00 (00:00)
56 Ninja Stealth 2 Jan 30, 2017 $0.49N/A (N/A)50,000 .. 100,0000%00:00 (00:00)
57 Dungeon Painter Studio Feb 26, 2017 $14.99N/A (N/A)50,000 .. 100,0000%00:00 (00:00)
58 Darkarta: A Broken Heart's Quest Collector's Edition Mar 8, 2017 $3.99N/A (N/A)50,000 .. 100,0000%00:00 (00:00)
59 Racecraft Mar 4, 2016 FreeN/A (N/A)20,000 .. 50,0000%00:00 (00:00)
60 Sinister City Oct 18, 2014 $0.49N/A (N/A)100,000 .. 200,0000%00:00 (00:00)
61 Pester Jan 25, 2013 $0.49N/A (N/A)100,000 .. 200,0000%00:00 (00:00)
62 The Jackbox Party Pack Nov 26, 2014 $12.49N/A (N/A)200,000 .. 500,0000%00:00 (00:00)
63 Drizzlepath Mar 12, 2015 $0.99N/A (N/A)20,000 .. 50,0000%00:00 (00:00)
64 1931: Scheherazade at the Library of Pergamum Mar 26, 2015 $0.99N/A (N/A)0 .. 20,0000%00:00 (00:00)
65 The Reject Demon: Toko Chapter 0 — Prelude May 9, 2015 $4.99N/A (N/A)20,000 .. 50,0000%00:00 (00:00)
66 Marble Duel: Sphere-Matching Tactical Fantasy Nov 12, 2015 $4.49N/A (N/A)50,000 .. 100,0000%00:00 (00:00)
67 Cursed Sight Aug 3, 2015 $2.49N/A (N/A)0 .. 20,0000%00:00 (00:00)
68 12 Labours of Hercules Mar 23, 2015 $1.79N/A (N/A)100,000 .. 200,0000%00:00 (00:00)
69 MOAI 2: Path to Another World Apr 11, 2015 $0.79N/A (N/A)0 .. 20,0000%00:00 (00:00)
70 Pixel Puzzles 2: Birds Feb 20, 2015 $1.24N/A (N/A)200,000 .. 500,0000%00:00 (00:00)
71 Power of Love Jul 21, 2015 $0.49N/A (N/A)20,000 .. 50,0000%00:00 (00:00)
72 Stay Alight Mar 2, 2015 $3.99N/A (N/A)50,000 .. 100,0000%00:00 (00:00)
73 Space Drifters 2D Mar 28, 2016 $0.99N/A (N/A)20,000 .. 50,0000%00:00 (00:00)
74 Streets of Chaos Jan 23, 2015 N/AN/A (N/A)100,000 .. 200,0000%00:00 (00:00)
75 Fate Tectonics Sep 9, 2015 $0.49N/A (N/A)20,000 .. 50,0000%00:00 (00:00)
76 Tennis in the Face Nov 18, 2015 $1.74N/A (N/A)0 .. 20,0000%00:00 (00:00)
77 Star Chronicles: Delta Quadrant Jul 7, 2015 $0.49N/A (N/A)200,000 .. 500,0000%00:00 (00:00)
78 Backgammon Blitz Nov 12, 2015 $3.99N/A (N/A)0 .. 20,0000%00:00 (00:00)
79 Wanda - A Beautiful Apocalypse Jun 3, 2016 $1.99N/A (N/A)100,000 .. 200,0000%00:00 (00:00)
80 12 Labours of Hercules IV: Mother Nature (Platinum Edition) Dec 25, 2015 $1.79N/A (N/A)20,000 .. 50,0000%00:00 (00:00)
81 Asphyxia Aug 4, 2015 $1.79N/A (N/A)20,000 .. 50,0000%00:00 (00:00)
82 Without Within 2 Nov 9, 2015 $2.49N/A (N/A)0 .. 20,0000%00:00 (00:00)
83 Alpha Runner Sep 2, 2015 $0.99N/A (N/A)100,000 .. 200,0000%00:00 (00:00)
84 Lift It Jan 20, 2017 $0.49N/A (N/A)50,000 .. 100,0000%00:00 (00:00)
85 In Between Aug 21, 2015 $2.99N/A (N/A/68%)50,000 .. 100,0000%00:00 (00:00)
86 Star Sky Oct 23, 2015 $1.59N/A (N/A)0 .. 20,0000%00:00 (00:00)
87 Robot vs Birds Zombies Jun 1, 2013 $0.99N/A (N/A)500,000 .. 1,000,0000%00:00 (00:00)
88 The Last NightMary - A Lenda do Cabeça de Cuia Nov 2, 2015 $3.99N/A (N/A)50,000 .. 100,0000%00:00 (00:00)
89 Army of Pixels Oct 29, 2015 $4.99N/A (N/A)0 .. 20,0000%00:00 (00:00)
90 Herding Dog Dec 25, 2015 $1.99N/A (N/A)0 .. 20,0000%00:00 (00:00)
91 Dance Magic Feb 15, 2016 $2.49N/A (N/A)0 .. 20,0000%00:00 (00:00)
92 Swapperoo Dec 18, 2015 $4.99N/A (N/A)0 .. 20,0000%00:00 (00:00)

Tags over time:

Access restricted.

This feature is only available to users with special access rights. Sorry.

If you want to proceed, you need to register or log in first and then back Steam Spy on Patreon. Look for Indie or Pro pledge.

Don't forget to use the same email as on Steam Spy!

Owners of this game also own:

Access restricted.

This feature is only available to users with special access rights. Sorry.

If you want to proceed, you need to register or log in first and then back Steam Spy on Patreon. Look for Indie or Pro pledge.

Don't forget to use the same email as on Steam Spy!

Playtime distribution:

Access restricted.

This feature is only available to users with special access rights. Sorry.

If you want to proceed, you need to register or log in first and then back Steam Spy on Patreon. Look for Indie or Pro pledge.

Don't forget to use the same email as on Steam Spy!

Playtime (2 weeks):

Access restricted.

This feature is only available to users with special access rights. Sorry.

If you want to proceed, you need to register or log in first and then back Steam Spy on Patreon. Look for Indie or Pro pledge.

Don't forget to use the same email as on Steam Spy!

User reviews:

Login required.

Please register or log in to see this information.